createdAt,value
2019-03-01T00:00:17.801Z,28.50
2019-03-01T00:01:17.701Z,30.20
2019-03-01T00:02:17.688Z,29.80
2019-03-01T00:03:17.813Z,26.30
2019-03-01T00:04:17.680Z,26.80
2019-03-01T00:05:17.650Z,30.80
2019-03-01T00:06:17.657Z,26.40
2019-03-01T00:07:17.642Z,23.40
2019-03-01T00:08:17.618Z,24.40
2019-03-01T00:09:17.605Z,25.00
2019-03-01T00:10:17.672Z,28.80
2019-03-01T00:11:17.608Z,28.80
2019-03-01T00:12:17.690Z,30.20
2019-03-01T00:13:17.603Z,28.60
2019-03-01T00:14:17.566Z,27.90
2019-03-01T00:15:17.599Z,32.30
2019-03-01T00:16:17.588Z,35.20
2019-03-01T00:17:17.626Z,29.70
2019-03-01T00:18:17.558Z,30.00
2019-03-01T00:19:17.518Z,28.50
2019-03-01T00:20:17.518Z,26.70
2019-03-01T00:21:17.531Z,31.50
2019-03-01T00:22:17.483Z,31.30
2019-03-01T00:23:17.479Z,35.80
2019-03-01T00:24:17.449Z,29.80
2019-03-01T00:25:17.447Z,33.20
2019-03-01T00:26:17.450Z,28.50
2019-03-01T00:27:17.465Z,36.00
2019-03-01T00:28:17.439Z,34.40
2019-03-01T00:29:17.436Z,27.30
2019-03-01T00:30:17.460Z,33.10
2019-03-01T00:31:17.410Z,35.00
2019-03-01T00:32:17.425Z,28.70
2019-03-01T00:33:17.362Z,24.40
2019-03-01T00:34:17.361Z,26.20
2019-03-01T00:35:17.338Z,26.40
2019-03-01T00:36:17.333Z,28.80
2019-03-01T00:37:17.350Z,28.50
2019-03-01T00:38:17.318Z,27.90
2019-03-01T00:39:17.299Z,31.30
2019-03-01T00:40:17.295Z,33.20
2019-03-01T00:41:17.334Z,32.80
2019-03-01T00:42:17.282Z,32.90
2019-03-01T00:43:17.337Z,34.40
2019-03-01T00:44:17.246Z,42.30
2019-03-01T00:45:17.253Z,34.30
2019-03-01T00:46:17.216Z,41.00
2019-03-01T00:47:17.302Z,41.30
2019-03-01T00:48:17.252Z,35.10
2019-03-01T00:49:17.241Z,34.10
2019-03-01T00:50:17.231Z,35.10
2019-03-01T00:51:17.244Z,29.10
2019-03-01T00:52:17.207Z,34.20
2019-03-01T00:53:17.234Z,34.80
2019-03-01T00:54:17.150Z,40.00
2019-03-01T00:55:17.152Z,34.10
2019-03-01T00:56:17.164Z,37.80
2019-03-01T00:57:17.094Z,34.30
2019-03-01T00:58:17.125Z,31.60
2019-03-01T00:59:17.144Z,32.70
2019-03-01T01:00:17.088Z,34.80
2019-03-01T01:01:17.059Z,34.10
2019-03-01T01:02:17.046Z,33.00
2019-03-01T01:03:17.090Z,33.60
2019-03-01T01:04:17.080Z,41.40
2019-03-01T01:05:17.009Z,34.40
2019-03-01T01:06:17.058Z,34.90
2019-03-01T01:07:17.006Z,40.00
2019-03-01T01:08:17.002Z,35.70
2019-03-01T01:09:16.969Z,34.30
2019-03-01T01:10:16.965Z,38.50
2019-03-01T01:11:17.029Z,39.20
2019-03-01T01:12:16.973Z,37.10
2019-03-01T01:13:16.958Z,37.30
2019-03-01T01:14:16.955Z,37.10
2019-03-01T01:15:16.947Z,41.80
2019-03-01T01:16:16.894Z,37.70
2019-03-01T01:17:16.884Z,39.80
2019-03-01T01:18:16.945Z,37.10
2019-03-01T01:19:16.880Z,42.60
2019-03-01T01:20:16.874Z,39.70
2019-03-01T01:21:16.901Z,39.00
2019-03-01T01:22:16.859Z,40.10
2019-03-01T01:23:16.819Z,40.20
2019-03-01T01:24:16.828Z,37.70
2019-03-01T01:25:16.893Z,40.90
2019-03-01T01:26:16.830Z,40.10
2019-03-01T01:27:16.784Z,46.30
2019-03-01T01:28:16.765Z,39.40
2019-03-01T01:29:16.788Z,38.80
2019-03-01T01:30:16.761Z,38.00
2019-03-01T01:31:16.833Z,45.20
2019-03-01T01:32:16.759Z,40.30
2019-03-01T01:33:16.729Z,41.40
2019-03-01T01:34:16.782Z,48.90
2019-03-01T01:35:16.690Z,41.10
2019-03-01T01:36:16.721Z,42.50
2019-03-01T01:37:16.685Z,40.00
2019-03-01T01:38:16.718Z,42.40
2019-03-01T01:39:16.679Z,38.20
2019-03-01T01:40:16.704Z,40.70
2019-03-01T01:41:16.659Z,50.50
2019-03-01T01:42:16.641Z,37.80
2019-03-01T01:43:16.679Z,43.20
2019-03-01T01:44:16.606Z,38.90
2019-03-01T01:45:16.627Z,43.40
2019-03-01T01:46:16.574Z,40.80
2019-03-01T01:47:16.559Z,44.90
2019-03-01T01:48:16.567Z,40.40
2019-03-01T01:49:16.564Z,44.60
2019-03-01T01:50:16.527Z,40.80
2019-03-01T01:51:16.543Z,45.50
2019-03-01T01:52:16.517Z,41.50
2019-03-01T01:53:16.514Z,40.70
2019-03-01T01:54:16.496Z,42.90
2019-03-01T01:55:16.876Z,46.60
2019-03-01T01:56:16.481Z,42.50
2019-03-01T01:57:16.481Z,44.30
2019-03-01T01:58:16.464Z,43.40
2019-03-01T01:59:16.453Z,46.40
2019-03-01T02:00:16.475Z,52.20
2019-03-01T02:01:16.413Z,44.60
2019-03-01T02:02:16.436Z,36.60
2019-03-01T02:03:16.418Z,41.00
2019-03-01T02:04:16.427Z,40.10
2019-03-01T02:05:16.403Z,42.50
2019-03-01T02:06:16.370Z,41.30
2019-03-01T02:07:16.370Z,48.40
2019-03-01T02:08:16.405Z,48.40
2019-03-01T02:09:16.412Z,49.00
2019-03-01T02:10:16.329Z,52.00
2019-03-01T02:11:16.323Z,46.70
2019-03-01T02:12:16.437Z,42.50
2019-03-01T02:13:16.328Z,46.70
2019-03-01T02:14:16.326Z,45.20
2019-03-01T02:15:16.336Z,56.60
2019-03-01T02:16:16.299Z,41.70
2019-03-01T02:17:16.307Z,40.20
2019-03-01T02:18:16.307Z,46.10
2019-03-01T02:19:16.302Z,49.10
2019-03-01T02:20:16.239Z,41.80
2019-03-01T02:21:16.233Z,42.10
2019-03-01T02:22:16.208Z,45.10
2019-03-01T02:23:16.201Z,45.10
2019-03-01T02:24:16.231Z,43.90
2019-03-01T02:25:16.170Z,34.40
2019-03-01T02:26:16.193Z,37.90
2019-03-01T02:27:16.132Z,38.70
2019-03-01T02:28:16.203Z,37.10
2019-03-01T02:29:16.175Z,37.70
2019-03-01T02:30:16.101Z,38.40
2019-03-01T02:31:16.091Z,36.40
2019-03-01T02:32:16.084Z,39.50
2019-03-01T02:33:16.139Z,43.00
2019-03-01T02:34:16.086Z,47.00
2019-03-01T02:35:16.055Z,38.10
2019-03-01T02:36:16.109Z,33.90
2019-03-01T02:37:16.138Z,41.20
2019-03-01T02:38:16.013Z,46.70
2019-03-01T02:39:16.104Z,40.40
2019-03-01T02:40:16.100Z,37.70
2019-03-01T02:41:16.020Z,37.50
2019-03-01T02:42:15.981Z,34.20
2019-03-01T02:43:15.976Z,36.00
2019-03-01T02:44:15.996Z,36.60
2019-03-01T02:45:15.967Z,36.00
2019-03-01T02:46:15.962Z,49.80
2019-03-01T02:47:15.987Z,38.20
2019-03-01T02:48:15.963Z,37.40
2019-03-01T02:49:15.984Z,37.80
2019-03-01T02:50:15.927Z,35.80
2019-03-01T02:51:15.923Z,36.30
2019-03-01T02:52:15.974Z,37.40
2019-03-01T02:53:15.948Z,37.90
2019-03-01T02:54:15.858Z,34.70
2019-03-01T02:55:15.889Z,33.60
2019-03-01T02:56:15.841Z,34.60
2019-03-01T02:57:15.829Z,37.30
2019-03-01T02:58:15.840Z,36.10
2019-03-01T02:59:15.911Z,32.30
2019-03-01T03:00:15.819Z,42.30
2019-03-01T03:01:15.802Z,35.20
2019-03-01T03:02:15.780Z,36.10
2019-03-01T03:03:15.769Z,30.10
2019-03-01T03:04:15.763Z,36.90
2019-03-01T03:05:15.753Z,31.20
2019-03-01T03:06:15.731Z,32.20
2019-03-01T03:07:15.754Z,44.20
2019-03-01T03:08:15.705Z,40.90
2019-03-01T03:09:15.714Z,38.60
2019-03-01T03:10:15.689Z,34.40
2019-03-01T03:11:15.691Z,34.70
2019-03-01T03:12:15.660Z,37.00
2019-03-01T03:13:15.731Z,37.60
2019-03-01T03:14:15.683Z,33.20
2019-03-01T03:15:15.689Z,33.90
2019-03-01T03:16:15.617Z,34.80
2019-03-01T03:17:15.713Z,30.60
2019-03-01T03:18:15.603Z,32.90
2019-03-01T03:19:15.601Z,30.50
2019-03-01T03:20:15.830Z,33.10
2019-03-01T03:21:15.595Z,32.30
2019-03-01T03:22:15.622Z,34.10
2019-03-01T03:23:15.530Z,34.70
2019-03-01T03:24:15.580Z,35.50
2019-03-01T03:25:15.560Z,30.70
2019-03-01T03:26:15.507Z,31.00
2019-03-01T03:27:15.543Z,35.40
2019-03-01T03:28:15.504Z,32.20
2019-03-01T03:29:15.539Z,25.60
2019-03-01T03:30:15.504Z,28.30
2019-03-01T03:31:15.520Z,30.40
2019-03-01T03:32:15.472Z,35.90
2019-03-01T03:33:15.496Z,31.50
2019-03-01T03:34:15.424Z,37.10
2019-03-01T03:35:15.481Z,34.50
2019-03-01T03:36:15.406Z,29.60
2019-03-01T03:37:15.469Z,31.00
2019-03-01T03:38:15.419Z,24.10
2019-03-01T03:39:15.376Z,31.80
2019-03-01T03:40:15.369Z,28.90
2019-03-01T03:41:15.353Z,26.70
2019-03-01T03:42:15.330Z,29.30
2019-03-01T03:43:15.333Z,25.20
2019-03-01T03:44:15.361Z,25.50
2019-03-01T03:45:15.358Z,37.20
2019-03-01T03:46:15.301Z,24.00
2019-03-01T03:47:15.315Z,36.30
2019-03-01T03:48:15.316Z,34.10
2019-03-01T03:49:15.293Z,30.80
2019-03-01T03:50:15.253Z,20.90
2019-03-01T03:51:15.338Z,32.00
2019-03-01T03:52:15.242Z,27.10
2019-03-01T03:53:15.245Z,35.80
2019-03-01T03:54:15.210Z,36.90
2019-03-01T03:55:15.250Z,28.80
2019-03-01T03:56:15.178Z,27.20
2019-03-01T03:57:15.200Z,28.00
2019-03-01T03:58:15.265Z,34.50
2019-03-01T03:59:15.143Z,27.00
2019-03-01T04:00:15.138Z,29.90
2019-03-01T04:01:15.165Z,27.50
2019-03-01T04:02:15.188Z,32.90
2019-03-01T04:03:15.156Z,29.60
2019-03-01T04:04:15.110Z,28.30
2019-03-01T04:05:15.097Z,27.90
2019-03-01T04:06:15.197Z,33.70
2019-03-01T04:07:15.065Z,35.70
2019-03-01T04:08:15.080Z,25.80
2019-03-01T04:09:15.053Z,32.60
2019-03-01T04:10:15.123Z,37.70
2019-03-01T04:11:15.037Z,34.30
2019-03-01T04:12:15.014Z,45.30
2019-03-01T04:13:16.760Z,32.10
2019-03-01T04:14:14.987Z,30.20
2019-03-01T04:15:15.016Z,30.90
2019-03-01T04:16:15.040Z,24.80
2019-03-01T04:17:14.992Z,27.90
2019-03-01T04:18:14.980Z,27.50
2019-03-01T04:19:14.977Z,31.70
2019-03-01T04:20:14.992Z,32.30
2019-03-01T04:21:14.923Z,26.40
2019-03-01T04:22:14.930Z,32.30
2019-03-01T04:23:14.903Z,32.30
2019-03-01T04:24:14.980Z,29.50
2019-03-01T04:25:14.909Z,27.40
2019-03-01T04:26:14.930Z,28.50
2019-03-01T04:27:14.874Z,26.50
2019-03-01T04:28:14.907Z,31.30
2019-03-01T04:29:14.950Z,34.70
2019-03-01T04:30:14.863Z,25.00
2019-03-01T04:31:14.824Z,36.70
2019-03-01T04:32:14.823Z,31.80
2019-03-01T04:33:14.786Z,31.60
2019-03-01T04:34:14.795Z,32.30
2019-03-01T04:35:14.784Z,34.90
2019-03-01T04:36:14.823Z,34.20
2019-03-01T04:37:14.737Z,30.60
2019-03-01T04:38:14.730Z,30.10
2019-03-01T04:39:14.792Z,31.40
2019-03-01T04:40:14.798Z,33.60
2019-03-01T04:41:14.699Z,28.50
2019-03-01T04:42:14.693Z,38.40
2019-03-01T04:43:14.765Z,31.90
2019-03-01T04:44:14.719Z,31.30
2019-03-01T04:45:14.655Z,35.20
2019-03-01T04:46:14.676Z,31.20
2019-03-01T04:47:14.746Z,32.40
2019-03-01T04:48:14.634Z,35.90
2019-03-01T04:49:14.659Z,34.90
2019-03-01T04:50:14.676Z,35.90
2019-03-01T04:51:14.613Z,36.30
2019-03-01T04:52:14.681Z,44.00
2019-03-01T04:53:14.575Z,34.40
2019-03-01T04:54:14.584Z,35.20
2019-03-01T04:55:14.566Z,36.80
2019-03-01T04:56:14.537Z,36.90
2019-03-01T04:57:14.539Z,40.40
2019-03-01T04:58:14.535Z,50.50
2019-03-01T04:59:14.524Z,42.10
2019-03-01T05:00:14.494Z,39.80
2019-03-01T05:01:14.606Z,35.10
2019-03-01T05:02:14.497Z,42.90
2019-03-01T05:03:14.548Z,45.10
2019-03-01T05:04:14.518Z,43.20
2019-03-01T05:05:14.453Z,40.50
2019-03-01T05:06:14.472Z,46.20
2019-03-01T05:07:14.442Z,40.90
2019-03-01T05:08:14.425Z,43.00
2019-03-01T05:09:14.418Z,36.20
2019-03-01T05:10:14.412Z,44.30
2019-03-01T05:11:14.445Z,51.20
2019-03-01T05:12:14.424Z,45.10
2019-03-01T05:13:14.368Z,51.40
2019-03-01T05:14:14.368Z,48.80
2019-03-01T05:15:14.670Z,53.70
2019-03-01T05:16:14.341Z,55.30
2019-03-01T05:17:14.320Z,54.40
2019-03-01T05:18:14.367Z,49.30
2019-03-01T05:19:14.295Z,40.90
2019-03-01T05:20:14.333Z,54.20
2019-03-01T05:21:14.343Z,56.30
2019-03-01T05:22:14.262Z,53.80
2019-03-01T05:23:14.261Z,49.10
2019-03-01T05:24:14.284Z,50.80
2019-03-01T05:25:14.248Z,76.20
2019-03-01T05:26:14.247Z,49.00
2019-03-01T05:27:14.550Z,61.70
2019-03-01T05:28:14.214Z,62.10
2019-03-01T05:29:14.272Z,57.70
2019-03-01T05:30:14.177Z,53.90
2019-03-01T05:31:14.307Z,47.50
2019-03-01T05:32:14.173Z,56.70
2019-03-01T05:33:14.170Z,60.50
2019-03-01T05:34:14.173Z,49.10
2019-03-01T05:35:14.194Z,58.70
2019-03-01T05:36:14.194Z,61.50
2019-03-01T05:37:14.172Z,54.10
2019-03-01T05:38:21.509Z,67.80
2019-03-01T05:39:15.071Z,63.40
2019-03-01T05:40:14.157Z,58.30
2019-03-01T05:41:14.151Z,61.70
2019-03-01T05:42:14.056Z,52.50
2019-03-01T05:43:14.055Z,65.20
2019-03-01T05:44:14.021Z,61.00
2019-03-01T05:45:14.046Z,60.40
2019-03-01T05:46:14.054Z,60.80
2019-03-01T05:47:14.107Z,60.80
2019-03-01T05:48:14.018Z,64.40
2019-03-01T05:49:14.098Z,57.50
2019-03-01T05:50:14.037Z,53.50
2019-03-01T05:51:13.951Z,50.60
2019-03-01T05:52:13.938Z,53.50
2019-03-01T05:53:13.970Z,47.20
2019-03-01T05:54:13.962Z,61.40
2019-03-01T05:55:13.937Z,59.80
2019-03-01T05:56:13.895Z,73.60
2019-03-01T05:57:13.971Z,61.20
2019-03-01T05:58:16.712Z,48.40
2019-03-01T05:59:13.972Z,78.80
2019-03-01T06:00:13.888Z,64.80
2019-03-01T06:01:13.970Z,66.90
2019-03-01T06:02:13.850Z,62.90
2019-03-01T06:03:13.860Z,59.90
2019-03-01T06:04:13.821Z,52.70
2019-03-01T06:05:13.851Z,61.60
2019-03-01T06:06:13.796Z,83.00
2019-03-01T06:07:13.837Z,76.00
2019-03-01T06:08:13.784Z,39.80
2019-03-01T06:09:13.774Z,45.60
2019-03-01T06:10:13.768Z,42.70
2019-03-01T06:11:13.776Z,49.40
2019-03-01T06:12:13.768Z,47.10
2019-03-01T06:13:13.761Z,59.80
2019-03-01T06:14:13.702Z,65.90
2019-03-01T06:15:13.728Z,57.30
2019-03-01T06:16:13.695Z,74.50
2019-03-01T06:17:13.699Z,57.20
2019-03-01T06:18:13.696Z,66.50
2019-03-01T06:19:13.660Z,47.60
2019-03-01T06:20:13.759Z,60.70
2019-03-01T06:21:13.657Z,64.50
2019-03-01T06:22:13.677Z,55.90
2019-03-01T06:23:13.652Z,63.50
2019-03-01T06:24:13.651Z,64.60
2019-03-01T06:25:13.615Z,86.60
2019-03-01T06:26:13.578Z,73.60
2019-03-01T06:27:13.611Z,68.20
2019-03-01T06:28:13.676Z,71.40
2019-03-01T06:29:13.640Z,74.00
2019-03-01T06:30:13.628Z,73.60
2019-03-01T06:31:13.560Z,68.90
2019-03-01T06:32:13.632Z,92.00
2019-03-01T06:33:13.563Z,79.90
2019-03-01T06:34:13.502Z,78.30
2019-03-01T06:35:13.553Z,91.50
2019-03-01T06:36:13.563Z,77.20
2019-03-01T06:37:13.502Z,64.00
2019-03-01T06:38:13.471Z,78.40
2019-03-01T06:39:13.499Z,72.20
2019-03-01T06:40:13.481Z,68.10
2019-03-01T06:41:13.465Z,70.10
2019-03-01T06:42:13.407Z,94.50
2019-03-01T06:43:13.449Z,78.60
2019-03-01T06:44:13.429Z,93.20
2019-03-01T06:45:13.444Z,75.20
2019-03-01T06:46:13.367Z,80.50
2019-03-01T06:47:13.357Z,77.00
2019-03-01T06:48:13.341Z,72.20
2019-03-01T06:49:13.337Z,71.10
2019-03-01T06:50:13.361Z,88.80
2019-03-01T06:51:13.641Z,73.10
2019-03-01T06:52:13.294Z,80.60
2019-03-01T06:53:13.299Z,72.80
2019-03-01T06:54:13.341Z,86.00
2019-03-01T06:55:13.294Z,87.10
2019-03-01T06:56:13.327Z,67.10
2019-03-01T06:57:13.398Z,63.10
2019-03-01T06:58:13.267Z,74.40
2019-03-01T06:59:13.259Z,69.60
2019-03-01T07:00:13.252Z,81.30
2019-03-01T07:01:13.218Z,72.60
2019-03-01T07:02:13.230Z,102.80
2019-03-01T07:03:13.322Z,81.50
2019-03-01T07:04:13.177Z,97.70
2019-03-01T07:05:13.168Z,82.40
2019-03-01T07:06:13.149Z,79.40
2019-03-01T07:07:13.177Z,78.30
2019-03-01T07:08:13.170Z,88.60
2019-03-01T07:09:13.169Z,102.70
2019-03-01T07:10:13.165Z,78.60
2019-03-01T07:11:13.097Z,86.20
2019-03-01T07:12:13.304Z,78.10
2019-03-01T07:13:13.127Z,80.80
2019-03-01T07:14:13.077Z,68.80
2019-03-01T07:15:13.054Z,64.80
2019-03-01T07:16:13.042Z,103.60
2019-03-01T07:17:13.034Z,74.30
2019-03-01T07:18:13.192Z,96.60
2019-03-01T07:19:13.006Z,84.60
2019-03-01T07:20:13.050Z,83.10
2019-03-01T07:21:12.988Z,86.70
2019-03-01T07:22:12.975Z,81.30
2019-03-01T07:23:13.040Z,77.60
2019-03-01T07:24:13.048Z,88.70
2019-03-01T07:25:12.951Z,77.30
2019-03-01T07:26:12.974Z,96.70
2019-03-01T07:27:12.938Z,92.10
2019-03-01T07:28:12.940Z,84.10
2019-03-01T07:29:12.928Z,98.10
2019-03-01T07:30:12.928Z,118.10
2019-03-01T07:31:12.921Z,96.70
2019-03-01T07:32:12.922Z,86.10
2019-03-01T07:33:12.888Z,87.90
2019-03-01T07:34:12.853Z,101.20
2019-03-01T07:35:12.936Z,89.80
2019-03-01T07:36:12.874Z,72.70
2019-03-01T07:37:12.820Z,81.70
2019-03-01T07:38:12.837Z,98.30
2019-03-01T07:39:12.849Z,95.90
2019-03-01T07:40:12.790Z,92.00
2019-03-01T07:41:12.814Z,111.20
2019-03-01T07:42:12.760Z,95.20
2019-03-01T07:43:12.764Z,87.10
2019-03-01T07:44:12.741Z,112.40
2019-03-01T07:45:12.746Z,94.50
2019-03-01T07:46:12.734Z,99.90
2019-03-01T07:47:12.793Z,116.40
2019-03-01T07:48:12.702Z,84.90
2019-03-01T07:49:12.700Z,93.20
2019-03-01T07:50:12.750Z,76.10
2019-03-01T07:51:12.694Z,91.00
2019-03-01T07:52:12.704Z,99.90
2019-03-01T07:53:12.672Z,89.90
2019-03-01T07:54:13.356Z,80.40
2019-03-01T07:55:12.677Z,92.10
2019-03-01T07:56:12.621Z,72.60
2019-03-01T07:57:14.801Z,68.10
2019-03-01T07:58:12.746Z,77.00
2019-03-01T07:59:12.612Z,86.50
2019-03-01T08:00:14.277Z,86.20
2019-03-01T08:01:12.605Z,97.00
2019-03-01T08:02:12.569Z,69.30
2019-03-01T08:03:15.149Z,68.00
2019-03-01T08:04:12.663Z,75.20
2019-03-01T08:05:13.482Z,79.00
2019-03-01T08:06:13.651Z,83.30
2019-03-01T08:07:12.505Z,77.50
2019-03-01T08:08:12.522Z,85.10
2019-03-01T08:09:12.499Z,82.20
2019-03-01T08:10:12.495Z,78.20
2019-03-01T08:11:12.476Z,88.10
2019-03-01T08:12:12.545Z,108.60
2019-03-01T08:13:14.754Z,82.30
2019-03-01T08:14:13.525Z,100.80
2019-03-01T08:15:12.457Z,90.30
2019-03-01T08:16:12.430Z,110.40
2019-03-01T08:17:12.388Z,104.20
2019-03-01T08:18:12.382Z,108.20
2019-03-01T08:19:17.000Z,114.90
2019-03-01T08:20:13.419Z,138.10
2019-03-01T08:21:14.691Z,147.20
2019-03-01T08:22:12.339Z,129.60
2019-03-01T08:23:14.382Z,133.80
2019-03-01T08:24:12.329Z,123.30
2019-03-01T08:25:12.350Z,132.30
2019-03-01T08:26:12.400Z,132.70
2019-03-01T08:27:12.294Z,149.20
2019-03-01T08:28:12.318Z,127.90
2019-03-01T08:29:12.286Z,161.70
2019-03-01T08:30:12.293Z,143.70
2019-03-01T08:31:12.290Z,134.80
2019-03-01T08:32:12.257Z,134.70
2019-03-01T08:33:12.250Z,146.40
2019-03-01T08:34:14.453Z,159.60
2019-03-01T08:35:13.256Z,126.20
2019-03-01T08:36:12.272Z,127.50
2019-03-01T08:37:14.449Z,130.80
2019-03-01T08:38:13.254Z,136.20
2019-03-01T08:39:12.199Z,128.10
2019-03-01T08:40:14.648Z,132.50
2019-03-01T08:41:12.139Z,133.60
2019-03-01T08:42:12.213Z,151.50
2019-03-01T08:43:13.220Z,158.10
2019-03-01T08:44:12.187Z,146.70
2019-03-01T08:45:12.125Z,152.30
2019-03-01T08:46:12.096Z,151.60
2019-03-01T08:47:12.095Z,178.00
2019-03-01T08:48:12.064Z,173.90
2019-03-01T08:49:12.121Z,187.60
2019-03-01T08:50:12.098Z,162.10
2019-03-01T08:51:12.036Z,193.60
2019-03-01T08:52:12.023Z,169.60
2019-03-01T08:53:15.263Z,212.40
2019-03-01T08:54:12.023Z,221.80
2019-03-01T08:55:12.011Z,193.30
2019-03-01T08:56:14.609Z,202.10
2019-03-01T08:57:11.974Z,167.00
2019-03-01T08:58:11.998Z,190.40
2019-03-01T08:59:14.189Z,171.40
2019-03-01T09:00:12.980Z,175.30
2019-03-01T09:01:11.937Z,172.40
2019-03-01T09:02:12.070Z,177.40
2019-03-01T09:03:11.900Z,200.20
2019-03-01T09:04:14.225Z,188.30
2019-03-01T09:05:12.944Z,207.10
2019-03-01T09:06:11.913Z,264.90
2019-03-01T09:07:11.918Z,203.60
2019-03-01T09:08:11.896Z,220.40
2019-03-01T09:09:11.866Z,224.80
2019-03-01T09:10:11.872Z,252.80
2019-03-01T09:11:11.863Z,260.70
2019-03-01T09:12:11.941Z,249.90
2019-03-01T09:13:11.815Z,270.60
2019-03-01T09:14:11.868Z,273.80
2019-03-01T09:15:11.851Z,240.80
2019-03-01T09:16:11.767Z,247.50
2019-03-01T09:17:11.772Z,253.20
2019-03-01T09:18:14.663Z,315.00
2019-03-01T09:19:11.829Z,278.90
2019-03-01T09:20:11.759Z,292.40
2019-03-01T09:21:12.764Z,254.30
2019-03-01T09:22:11.752Z,293.80
2019-03-01T09:23:22.873Z,280.90
2019-03-01T09:24:12.675Z,308.90
2019-03-01T09:25:11.763Z,283.30
2019-03-01T09:26:11.711Z,313.10
2019-03-01T09:27:11.640Z,307.60
2019-03-01T09:28:11.630Z,306.70
2019-03-01T09:29:13.015Z,280.20
2019-03-01T09:30:12.687Z,284.10
2019-03-01T09:31:11.627Z,298.30
2019-03-01T09:32:11.677Z,291.20
2019-03-01T09:33:11.589Z,293.80
2019-03-01T09:34:11.568Z,330.50
2019-03-01T09:35:11.566Z,327.00
2019-03-01T09:36:14.485Z,337.70
2019-03-01T09:37:12.558Z,374.20
2019-03-01T09:38:11.571Z,305.30
2019-03-01T09:39:14.420Z,318.70
2019-03-01T09:40:12.720Z,337.50
2019-03-01T09:41:11.497Z,315.70
2019-03-01T09:42:12.352Z,357.40
2019-03-01T09:43:11.544Z,280.60
2019-03-01T09:44:11.460Z,330.80
2019-03-01T09:45:13.591Z,315.30
2019-03-01T09:46:11.454Z,335.10
2019-03-01T09:47:11.469Z,413.90
2019-03-01T09:48:12.146Z,334.30
2019-03-01T09:49:11.509Z,376.50
2019-03-01T09:50:11.446Z,302.50
2019-03-01T09:51:11.527Z,349.80
2019-03-01T09:52:11.445Z,365.10
2019-03-01T09:53:11.415Z,454.10
2019-03-01T09:54:11.369Z,360.60
2019-03-01T09:55:11.380Z,318.70
2019-03-01T09:56:12.981Z,292.70
2019-03-01T09:57:12.386Z,406.40
2019-03-01T09:58:11.344Z,415.00
2019-03-01T09:59:11.355Z,364.00
2019-03-01T10:00:11.350Z,370.60
2019-03-01T10:01:11.463Z,364.70
2019-03-01T10:02:11.321Z,340.00
2019-03-01T10:03:11.262Z,329.70
2019-03-01T10:04:11.419Z,319.00
2019-03-01T10:05:11.253Z,315.50
2019-03-01T10:06:11.240Z,354.00
2019-03-01T10:07:11.221Z,298.60
2019-03-01T10:08:11.214Z,315.20
2019-03-01T10:09:11.214Z,333.20
2019-03-01T10:10:11.216Z,358.30
2019-03-01T10:11:11.176Z,337.50
2019-03-01T10:12:11.184Z,366.70
2019-03-01T10:13:11.251Z,408.40
2019-03-01T10:14:11.141Z,368.00
2019-03-01T10:15:11.152Z,389.00
2019-03-01T10:16:11.133Z,333.70
2019-03-01T10:17:11.150Z,346.40
2019-03-01T10:18:11.133Z,380.80
2019-03-01T10:19:11.101Z,407.10
2019-03-01T10:20:11.102Z,396.40
2019-03-01T10:21:11.126Z,434.70
2019-03-01T10:22:11.286Z,353.50
2019-03-01T10:23:11.170Z,455.70
2019-03-01T10:24:11.189Z,446.60
2019-03-01T10:25:11.053Z,287.10
2019-03-01T10:26:11.010Z,456.50
2019-03-01T10:27:11.041Z,479.30
2019-03-01T10:28:11.022Z,317.20
2019-03-01T10:29:11.041Z,451.70
2019-03-01T10:30:11.076Z,421.80
2019-03-01T10:31:11.020Z,321.00
2019-03-01T10:32:12.503Z,419.90
2019-03-01T10:33:10.948Z,301.70
2019-03-01T10:34:10.981Z,263.30
2019-03-01T10:35:10.940Z,268.90
2019-03-01T10:36:10.903Z,261.70
2019-03-01T10:37:10.937Z,292.40
2019-03-01T10:38:10.929Z,262.50
2019-03-01T10:39:10.885Z,264.30
2019-03-01T10:40:10.873Z,250.80
2019-03-01T10:41:10.970Z,358.10
2019-03-01T10:42:10.925Z,221.80
2019-03-01T10:43:10.887Z,257.40
2019-03-01T10:44:10.828Z,263.10
2019-03-01T10:45:10.816Z,295.30
2019-03-01T10:46:10.798Z,259.80
2019-03-01T10:47:10.805Z,362.70
2019-03-01T10:48:10.871Z,197.40
2019-03-01T10:49:10.788Z,257.30
2019-03-01T10:50:10.755Z,312.70
2019-03-01T10:51:10.742Z,358.90
2019-03-01T10:52:10.774Z,227.70
2019-03-01T10:53:10.751Z,413.60
2019-03-01T10:54:10.761Z,253.60
2019-03-01T10:55:10.700Z,272.80
2019-03-01T10:56:10.693Z,217.20
2019-03-01T10:57:10.679Z,401.70
2019-03-01T10:58:10.695Z,289.60
2019-03-01T10:59:10.750Z,335.80
2019-03-01T11:00:10.683Z,378.20
2019-03-01T11:01:10.689Z,443.90
2019-03-01T11:02:10.626Z,433.30
2019-03-01T11:03:10.617Z,425.40
2019-03-01T11:04:10.621Z,290.50
2019-03-01T11:05:10.662Z,366.00
2019-03-01T11:06:10.604Z,318.70
2019-03-01T11:07:10.590Z,384.90
2019-03-01T11:08:10.614Z,237.20
2019-03-01T11:09:10.554Z,349.20
2019-03-01T11:10:10.562Z,217.90
2019-03-01T11:11:10.575Z,358.00
2019-03-01T11:12:10.521Z,285.20
2019-03-01T11:13:10.512Z,330.70
2019-03-01T11:14:10.494Z,305.30
2019-03-01T11:15:10.508Z,278.30
2019-03-01T11:16:10.490Z,297.00
2019-03-01T11:17:10.467Z,274.30
2019-03-01T11:18:10.467Z,356.40
2019-03-01T11:19:10.530Z,347.50
2019-03-01T11:20:10.449Z,309.60
2019-03-01T11:21:10.484Z,275.70
2019-03-01T11:22:10.520Z,257.20
2019-03-01T11:23:10.476Z,282.50
2019-03-01T11:24:10.414Z,332.70
2019-03-01T11:25:10.491Z,411.10
2019-03-01T11:26:10.429Z,269.10
2019-03-01T11:27:13.052Z,335.90
2019-03-01T11:28:10.654Z,259.90
2019-03-01T11:29:10.399Z,246.20
2019-03-01T11:30:10.377Z,197.80
2019-03-01T11:31:10.333Z,178.50
2019-03-01T11:32:10.332Z,207.00
2019-03-01T11:33:10.328Z,189.80
2019-03-01T11:34:10.328Z,196.90
2019-03-01T11:35:10.310Z,199.50
2019-03-01T11:36:10.264Z,213.20
2019-03-01T11:37:10.295Z,173.90
2019-03-01T11:38:10.266Z,109.90
2019-03-01T11:39:10.289Z,139.00
2019-03-01T11:40:10.247Z,157.50
2019-03-01T11:41:10.205Z,156.60
2019-03-01T11:42:10.237Z,150.60
2019-03-01T11:43:10.188Z,164.80
2019-03-01T11:44:10.214Z,164.80
2019-03-01T11:45:10.179Z,156.40
2019-03-01T11:46:10.196Z,171.10
2019-03-01T11:47:10.199Z,161.20
2019-03-01T11:48:10.153Z,125.20
2019-03-01T11:49:10.134Z,128.90
2019-03-01T11:50:10.133Z,175.70
2019-03-01T11:51:10.155Z,149.90
2019-03-01T11:52:10.094Z,173.50
2019-03-01T11:53:10.081Z,151.20
2019-03-01T11:54:10.120Z,161.30
2019-03-01T11:55:10.063Z,171.50
2019-03-01T11:56:10.083Z,148.70
2019-03-01T11:57:10.053Z,147.90
2019-03-01T11:58:10.026Z,142.90
2019-03-01T11:59:10.025Z,153.40
2019-03-01T12:00:10.017Z,155.50
2019-03-01T12:01:16.925Z,170.50
2019-03-01T12:02:11.020Z,153.60
2019-03-01T12:03:10.025Z,171.50
2019-03-01T12:04:10.669Z,149.90
2019-03-01T12:05:09.943Z,132.40
2019-03-01T12:06:09.997Z,126.40
2019-03-01T12:07:10.037Z,141.70
2019-03-01T12:08:09.927Z,132.30
2019-03-01T12:09:09.905Z,130.50
2019-03-01T12:10:09.905Z,145.70
2019-03-01T12:11:09.957Z,143.90
2019-03-01T12:12:09.937Z,167.00
2019-03-01T12:13:09.977Z,155.10
2019-03-01T12:14:09.893Z,182.00
2019-03-01T12:15:09.870Z,137.40
2019-03-01T12:16:09.858Z,159.70
2019-03-01T12:17:09.879Z,136.20
2019-03-01T12:18:09.834Z,129.10
2019-03-01T12:19:09.898Z,137.10
2019-03-01T12:20:09.911Z,169.30
2019-03-01T12:21:09.809Z,140.40
2019-03-01T12:22:16.925Z,142.60
2019-03-01T12:23:10.765Z,104.30
2019-03-01T12:24:09.772Z,111.40
2019-03-01T12:25:10.451Z,123.00
2019-03-01T12:26:09.774Z,128.80
2019-03-01T12:27:09.801Z,124.90
2019-03-01T12:28:09.734Z,113.60
2019-03-01T12:29:09.730Z,132.70
2019-03-01T12:30:09.735Z,140.50
2019-03-01T12:31:09.740Z,115.90
2019-03-01T12:32:09.675Z,129.70
2019-03-01T12:33:09.695Z,126.30
2019-03-01T12:34:09.646Z,117.60
2019-03-01T12:35:09.701Z,134.80
2019-03-01T12:36:09.675Z,128.00
2019-03-01T12:37:09.704Z,151.50
2019-03-01T12:38:09.590Z,127.60
2019-03-01T12:39:10.041Z,131.20
2019-03-01T12:40:09.609Z,144.40
2019-03-01T12:41:09.578Z,141.60
2019-03-01T12:42:09.648Z,151.80
2019-03-01T12:43:09.569Z,151.30